Time;durP1;ratioP1;P1;durP2;ratioP2;P2;SDS_P1;SDS_P2;PMS_P1;PMS_P2;Temp;Humidity;BMP_temperature;BMP_pressure;BME280_temperature;BME280_humidity;BME280_pressure;Samples;Min_cycle;Max_cycle;Signal;HPM_P1;HPM_P2
2024/02/29 00:00:15;;;;;;;0.20;0.20;;;;;;;;;;5026034;28;20397;-70
2024/02/29 00:02:42;;;;;;;0.20;0.20;;;;;;;;;;5068031;28;20248;-71
2024/02/29 00:05:11;;;;;;;0.20;0.20;;;;;;;;;;5043670;28;20247;-71
2024/02/29 00:07:39;;;;;;;0.90;0.90;;;;;;;;;;5056665;28;20235;-70
2024/02/29 00:10:05;;;;;;;0.20;0.20;;;;;;;;;;5025775;28;20574;-70
2024/02/29 00:12:32;;;;;;;0.20;0.20;;;;;;;;;;5067348;28;20292;-70
2024/02/29 00:14:58;;;;;;;3.03;2.77;;;;;;;;;;5045207;28;20208;-70
2024/02/29 00:17:25;;;;;;;0.20;0.20;;;;;;;;;;5048779;28;20239;-70
2024/02/29 00:19:51;;;;;;;0.20;0.20;;;;;;;;;;5024736;28;20276;-71
2024/02/29 00:22:17;;;;;;;0.20;0.20;;;;;;;;;;5064985;28;20283;-70
2024/02/29 00:24:45;;;;;;;0.30;0.30;;;;;;;;;;5045570;28;20242;-71
2024/02/29 00:27:11;;;;;;;0.20;0.20;;;;;;;;;;5050053;28;20308;-70
2024/02/29 00:29:38;;;;;;;0.20;0.20;;;;;;;;;;5025173;28;20278;-70
2024/02/29 00:32:05;;;;;;;0.20;0.20;;;;;;;;;;5061814;28;20247;-70
2024/02/29 00:34:32;;;;;;;0.20;0.20;;;;;;;;;;5045877;28;20252;-71
2024/02/29 00:36:58;;;;;;;0.20;0.20;;;;;;;;;;5048821;28;20643;-70
2024/02/29 00:39:24;;;;;;;0.20;0.20;;;;;;;;;;5028378;28;20208;-70
2024/02/29 00:41:52;;;;;;;0.20;0.20;;;;;;;;;;5056086;28;20241;-70
2024/02/29 00:44:18;;;;;;;0.20;0.20;;;;;;;;;;5049566;28;20505;-70
2024/02/29 00:46:45;;;;;;;0.10;0.10;;;;;;;;;;5046710;28;20264;-71
2024/02/29 00:49:12;;;;;;;0.20;0.20;;;;;;;;;;5031312;28;20206;-71
2024/02/29 00:51:38;;;;;;;0.20;0.20;;;;;;;;;;5051059;28;20311;-71
2024/02/29 00:54:05;;;;;;;0.20;0.20;;;;;;;;;;5052789;28;20214;-70
2024/02/29 00:56:31;;;;;;;2.80;2.60;;;;;;;;;;5044942;28;20268;-70
2024/02/29 00:58:59;;;;;;;0.20;0.20;;;;;;;;;;5034625;28;20273;-70
2024/02/29 01:01:25;;;;;;;0.40;0.40;;;;;;;;;;5045497;28;20240;-70
2024/02/29 01:03:51;;;;;;;0.13;0.13;;;;;;;;;;5056004;28;20214;-70
2024/02/29 01:06:18;;;;;;;0.20;0.20;;;;;;;;;;5042893;28;20252;-71
2024/02/29 01:08:44;;;;;;;0.20;0.20;;;;;;;;;;5038219;28;20233;-70
2024/02/29 01:11:11;;;;;;;0.20;0.20;;;;;;;;;;5039272;28;20274;-71
2024/02/29 01:13:37;;;;;;;0.20;0.20;;;;;;;;;;5060107;28;20205;-71
2024/02/29 01:16:05;;;;;;;0.20;0.20;;;;;;;;;;5041140;28;20236;-71
2024/02/29 01:18:32;;;;;;;0.27;0.27;;;;;;;;;;5041239;28;20252;-70
2024/02/29 01:20:58;;;;;;;0.10;0.10;;;;;;;;;;5034227;28;20241;-71
2024/02/29 01:23:24;;;;;;;0.20;0.20;;;;;;;;;;5062845;28;20245;-70
2024/02/29 01:25:51;;;;;;;0.20;0.20;;;;;;;;;;5039423;28;20241;-71
2024/02/29 01:28:17;;;;;;;0.20;0.20;;;;;;;;;;5044874;28;20479;-71
2024/02/29 01:30:43;;;;;;;0.20;0.20;;;;;;;;;;5028486;28;20258;-71
2024/02/29 01:33:11;;;;;;;0.20;0.20;;;;;;;;;;5066787;28;20207;-70
2024/02/29 01:35:38;;;;;;;0.20;0.20;;;;;;;;;;5037527;28;20247;-71
2024/02/29 01:38:05;;;;;;;0.20;0.20;;;;;;;;;;5048129;28;20279;-70
2024/02/29 01:40:31;;;;;;;0.10;0.10;;;;;;;;;;5023293;28;20308;-71
2024/02/29 01:42:58;;;;;;;0.20;0.20;;;;;;;;;;5069744;28;20251;-71
2024/02/29 01:45:24;;;;;;;0.20;0.20;;;;;;;;;;5035120;28;20246;-71
2024/02/29 01:47:50;;;;;;;0.20;0.20;;;;;;;;;;5051747;28;20275;-71
2024/02/29 01:50:19;;;;;;;0.20;0.20;;;;;;;;;;5017811;28;20209;-71
2024/02/29 01:52:46;;;;;;;0.20;0.20;;;;;;;;;;5072806;28;20244;-71
2024/02/29 01:55:12;;;;;;;0.20;0.20;;;;;;;;;;5034228;28;20205;-71
2024/02/29 01:57:39;;;;;;;0.20;0.20;;;;;;;;;;5054728;28;20210;-71
2024/02/29 02:00:08;;;;;;;1.80;1.80;;;;;;;;;;5023742;28;20238;-71
2024/02/29 02:02:34;;;;;;;0.20;0.20;;;;;;;;;;5012839;28;20235;-70
2024/02/29 02:05:01;;;;;;;0.20;0.20;;;;;;;;;;5023766;28;20273;-70
2024/02/29 02:07:29;;;;;;;0.20;0.20;;;;;;;;;;5064894;28;20487;-71
2024/02/29 02:09:56;;;;;;;0.20;0.20;;;;;;;;;;5043486;28;20297;-71
2024/02/29 02:12:22;;;;;;;0.20;0.20;;;;;;;;;;5047038;28;20263;-70
2024/02/29 02:14:49;;;;;;;0.20;0.20;;;;;;;;;;5023655;28;20273;-71
2024/02/29 02:17:15;;;;;;;0.20;0.20;;;;;;;;;;5063293;28;20308;-70
2024/02/29 02:19:42;;;;;;;0.20;0.20;;;;;;;;;;5043388;28;20258;-72
2024/02/29 02:22:10;;;;;;;0.20;0.20;;;;;;;;;;5048593;28;20256;-70
2024/02/29 02:24:37;;;;;;;0.20;0.20;;;;;;;;;;5023862;28;20205;-70
2024/02/29 02:27:04;;;;;;;0.20;0.20;;;;;;;;;;5059816;28;20505;-70
2024/02/29 02:29:31;;;;;;;0.20;0.20;;;;;;;;;;5044488;28;20224;-70
2024/02/29 02:31:57;;;;;;;0.77;0.67;;;;;;;;;;5047007;28;20245;-71
2024/02/29 02:34:23;;;;;;;0.20;0.20;;;;;;;;;;5026358;28;20234;-70
2024/02/29 02:36:50;;;;;;;0.20;0.20;;;;;;;;;;5053346;28;20239;-71
2024/02/29 02:39:17;;;;;;;0.20;0.20;;;;;;;;;;5048733;28;20206;-70
2024/02/29 02:41:44;;;;;;;0.20;0.20;;;;;;;;;;5045209;28;20255;-70
2024/02/29 02:44:11;;;;;;;0.53;0.53;;;;;;;;;;5029662;28;20278;-70
2024/02/29 02:46:37;;;;;;;0.10;0.10;;;;;;;;;;5049229;28;20263;-70
2024/02/29 02:49:04;;;;;;;1.40;1.40;;;;;;;;;;5051581;28;20291;-70
2024/02/29 02:51:30;;;;;;;0.20;0.20;;;;;;;;;;5043274;28;20579;-70
2024/02/29 02:53:57;;;;;;;0.20;0.20;;;;;;;;;;5033397;28;20210;-71
2024/02/29 02:56:25;;;;;;;0.10;0.10;;;;;;;;;;5044170;28;20298;-71
2024/02/29 02:58:51;;;;;;;0.10;0.10;;;;;;;;;;5058632;28;20201;-70
2024/02/29 03:01:18;;;;;;;0.23;0.23;;;;;;;;;;5045405;28;20307;-70
2024/02/29 03:03:45;;;;;;;0.13;0.13;;;;;;;;;;5040462;28;20197;-70
2024/02/29 03:06:13;;;;;;;2.87;1.20;;;;;;;;;;5042051;28;20582;-71
2024/02/29 03:08:40;;;;;;;0.20;0.20;;;;;;;;;;5061165;28;20455;-71
2024/02/29 03:11:06;;;;;;;1.07;1.07;;;;;;;;;;5043766;28;20588;-71
2024/02/29 03:13:34;;;;;;;0.20;0.20;;;;;;;;;;5043159;28;20213;-70
2024/02/29 03:16:01;;;;;;;0.20;0.20;;;;;;;;;;5037551;28;20290;-71
2024/02/29 03:18:27;;;;;;;0.20;0.20;;;;;;;;;;5064808;28;20203;-71
2024/02/29 03:20:53;;;;;;;0.20;0.20;;;;;;;;;;5042071;28;20299;-70
2024/02/29 03:23:20;;;;;;;0.30;0.30;;;;;;;;;;5046473;28;20277;-71
2024/02/29 03:25:46;;;;;;;0.20;0.20;;;;;;;;;;5031902;28;20248;-71
2024/02/29 03:28:13;;;;;;;0.70;0.70;;;;;;;;;;5068115;28;20570;-71
2024/02/29 03:30:41;;;;;;;0.20;0.20;;;;;;;;;;5039965;28;20440;-71
2024/02/29 03:33:07;;;;;;;0.20;0.20;;;;;;;;;;5050254;28;20209;-70
2024/02/29 03:35:33;;;;;;;0.20;0.20;;;;;;;;;;5026708;28;20477;-70
2024/02/29 03:38:00;;;;;;;0.77;0.77;;;;;;;;;;5071598;28;20398;-70
2024/02/29 03:40:27;;;;;;;0.20;0.20;;;;;;;;;;5038081;28;20212;-71
2024/02/29 03:42:53;;;;;;;0.20;0.20;;;;;;;;;;5053411;28;20272;-71
2024/02/29 03:45:19;;;;;;;0.20;0.20;;;;;;;;;;5020821;28;20205;-70
2024/02/29 03:47:47;;;;;;;0.20;0.20;;;;;;;;;;5074856;28;20204;-70
2024/02/29 03:50:14;;;;;;;0.30;0.30;;;;;;;;;;5036358;28;20278;-71
2024/02/29 03:52:40;;;;;;;0.20;0.20;;;;;;;;;;5056525;28;20391;-71
2024/02/29 03:55:08;;;;;;;0.20;0.20;;;;;;;;;;5026294;28;20561;-70
2024/02/29 03:57:34;;;;;;;1.17;1.17;;;;;;;;;;5014957;28;20211;-71
2024/02/29 04:00:00;;;;;;;0.20;0.20;;;;;;;;;;5025858;28;20208;-71
2024/02/29 04:02:27;;;;;;;0.20;0.20;;;;;;;;;;5067029;28;20238;-70
2024/02/29 04:04:55;;;;;;;0.20;0.20;;;;;;;;;;5045627;28;20209;-71
2024/02/29 04:07:22;;;;;;;0.20;0.20;;;;;;;;;;5048761;28;20555;-70
2024/02/29 04:09:48;;;;;;;0.20;0.20;;;;;;;;;;5025851;28;20241;-71
2024/02/29 04:12:14;;;;;;;0.20;0.20;;;;;;;;;;5065135;28;20307;-71
2024/02/29 04:14:41;;;;;;;0.20;0.20;;;;;;;;;;5045742;28;20238;-71
2024/02/29 04:17:08;;;;;;;0.20;0.20;;;;;;;;;;5050392;28;20308;-71
2024/02/29 04:19:34;;;;;;;1.27;0.77;;;;;;;;;;5025628;28;20198;-71
2024/02/29 04:22:02;;;;;;;0.20;0.20;;;;;;;;;;5060625;28;20306;-71
2024/02/29 04:24:28;;;;;;;0.20;0.20;;;;;;;;;;5047179;28;20216;-71
2024/02/29 04:26:55;;;;;;;0.20;0.20;;;;;;;;;;5048720;28;20446;-71
2024/02/29 04:29:21;;;;;;;38.37;12.07;;;;;;;;;;5028821;28;20232;-70
2024/02/29 04:31:48;;;;;;;0.20;0.20;;;;;;;;;;5055429;28;20482;-70
2024/02/29 04:34:14;;;;;;;0.20;0.20;;;;;;;;;;5050547;28;20281;-70
2024/02/29 04:36:40;;;;;;;0.20;0.20;;;;;;;;;;5046586;28;20474;-71
2024/02/29 04:39:08;;;;;;;0.20;0.20;;;;;;;;;;5032833;28;20441;-71
2024/02/29 04:41:35;;;;;;;0.20;0.20;;;;;;;;;;5049795;28;20242;-71
2024/02/29 04:44:01;;;;;;;0.20;0.20;;;;;;;;;;5053901;28;20204;-70
2024/02/29 04:46:27;;;;;;;0.20;0.20;;;;;;;;;;5044709;28;20314;-70
2024/02/29 04:48:54;;;;;;;0.20;0.20;;;;;;;;;;5036141;28;20453;-70
2024/02/29 04:51:20;;;;;;;0.20;0.20;;;;;;;;;;5043623;28;20238;-71
2024/02/29 04:53:47;;;;;;;0.20;0.20;;;;;;;;;;5057440;28;20215;-70
2024/02/29 04:56:15;;;;;;;0.30;0.30;;;;;;;;;;5042903;28;20258;-70
2024/02/29 04:58:41;;;;;;;0.20;0.20;;;;;;;;;;5039234;28;20272;-70
2024/02/29 05:01:08;;;;;;;0.20;0.20;;;;;;;;;;5037223;28;20265;-70
2024/02/29 05:03:34;;;;;;;0.30;0.30;;;;;;;;;;5061333;28;20211;-70
2024/02/29 05:06:01;;;;;;;0.77;0.77;;;;;;;;;;5040748;28;20240;-71
2024/02/29 05:08:28;;;;;;;0.20;0.20;;;;;;;;;;5042224;28;20233;-70
2024/02/29 05:10:54;;;;;;;0.20;0.20;;;;;;;;;;5032794;28;20239;-70
2024/02/29 05:13:22;;;;;;;0.30;0.30;;;;;;;;;;5064046;28;20207;-71
2024/02/29 05:15:48;;;;;;;0.20;0.20;;;;;;;;;;5039398;28;20411;-71
2024/02/29 05:18:15;;;;;;;1.67;1.67;;;;;;;;;;5045659;28;20236;-71
2024/02/29 05:20:41;;;;;;;0.20;0.20;;;;;;;;;;5027244;28;20317;-70
2024/02/29 05:23:07;;;;;;;0.20;0.20;;;;;;;;;;5067411;28;20196;-70
2024/02/29 05:25:35;;;;;;;0.20;0.20;;;;;;;;;;5037421;28;20271;-70
2024/02/29 05:28:02;;;;;;;0.20;0.20;;;;;;;;;;5048963;28;20208;-71
2024/02/29 05:30:30;;;;;;;0.20;0.20;;;;;;;;;;5022676;28;20530;-71
2024/02/29 05:32:56;;;;;;;0.20;0.20;;;;;;;;;;5070581;28;20216;-71
2024/02/29 05:35:25;;;;;;;0.20;0.20;;;;;;;;;;5035753;28;20272;-70
2024/02/29 05:37:51;;;;;;;0.20;0.20;;;;;;;;;;5051561;28;20207;-71
2024/02/29 05:40:18;;;;;;;0.40;0.40;;;;;;;;;;5017797;28;20280;-70
2024/02/29 05:42:44;;;;;;;0.20;0.20;;;;;;;;;;5073365;28;20212;-71
2024/02/29 05:45:11;;;;;;;0.20;0.20;;;;;;;;;;5033769;28;20268;-71
2024/02/29 05:47:39;;;;;;;0.23;0.23;;;;;;;;;;5054991;28;20204;-70
2024/02/29 05:50:07;;;;;;;0.20;0.20;;;;;;;;;;5024131;28;20225;-70
2024/02/29 05:52:35;;;;;;;0.20;0.20;;;;;;;;;;5012668;28;20216;-71
2024/02/29 05:55:01;;;;;;;0.20;0.20;;;;;;;;;;5024162;28;20216;-70
2024/02/29 05:57:30;;;;;;;0.20;0.20;;;;;;;;;;5065023;28;20306;-70
2024/02/29 05:59:57;;;;;;;0.20;0.20;;;;;;;;;;5043435;28;20200;-70
2024/02/29 06:02:23;;;;;;;0.20;0.20;;;;;;;;;;5047280;28;20235;-70
2024/02/29 06:04:51;;;;;;;0.20;0.20;;;;;;;;;;5023630;28;20276;-71
2024/02/29 06:07:17;;;;;;;0.20;0.20;;;;;;;;;;5063163;28;20240;-70
2024/02/29 06:09:43;;;;;;;0.20;0.20;;;;;;;;;;5043189;28;20350;-70
2024/02/29 06:12:10;;;;;;;0.20;0.20;;;;;;;;;;5048476;28;20282;-71
2024/02/29 06:14:36;;;;;;;0.20;0.20;;;;;;;;;;5023434;28;20243;-70
2024/02/29 06:17:03;;;;;;;0.20;0.20;;;;;;;;;;5059843;28;20253;-70
2024/02/29 06:19:29;;;;;;;0.20;0.20;;;;;;;;;;5044868;28;20481;-71
2024/02/29 06:21:57;;;;;;;0.20;0.20;;;;;;;;;;5046674;28;20243;-71
2024/02/29 06:24:23;;;;;;;0.27;0.27;;;;;;;;;;5026540;28;20201;-71
2024/02/29 06:26:49;;;;;;;0.20;0.20;;;;;;;;;;5054581;28;20511;-71
2024/02/29 06:29:19;;;;;;;0.20;0.20;;;;;;;;;;5047895;28;20232;-71
2024/02/29 06:31:47;;;;;;;0.20;0.20;;;;;;;;;;5048717;28;20239;-71
2024/02/29 06:34:13;;;;;;;0.20;0.20;;;;;;;;;;5033140;28;20206;-70
2024/02/29 06:36:39;;;;;;;0.20;0.20;;;;;;;;;;5054014;28;20301;-70
2024/02/29 06:39:08;;;;;;;3.40;3.20;;;;;;;;;;5054901;28;20208;-70
2024/02/29 06:41:34;;;;;;;0.20;0.20;;;;;;;;;;5048164;28;20243;-71
2024/02/29 06:44:01;;;;;;;0.30;0.30;;;;;;;;;;5036219;28;20233;-70
2024/02/29 06:46:27;;;;;;;0.20;0.20;;;;;;;;;;5049259;28;20285;-70
2024/02/29 06:48:54;;;;;;;0.20;0.20;;;;;;;;;;5057996;28;20232;-71
2024/02/29 06:51:20;;;;;;;0.63;0.63;;;;;;;;;;5045869;28;20239;-71
2024/02/29 06:53:46;;;;;;;0.30;0.30;;;;;;;;;;5039872;28;20220;-71
2024/02/29 06:56:14;;;;;;;0.20;0.20;;;;;;;;;;5043028;28;20239;-70
2024/02/29 06:58:42;;;;;;;4.10;3.80;;;;;;;;;;5061366;28;20223;-71
2024/02/29 07:01:08;;;;;;;0.97;0.97;;;;;;;;;;5044311;28;20247;-71
2024/02/29 07:03:35;;;;;;;0.20;0.20;;;;;;;;;;5042904;28;20244;-71
2024/02/29 07:06:01;;;;;;;0.33;0.33;;;;;;;;;;5037928;28;20304;-71
2024/02/29 07:08:28;;;;;;;0.20;0.20;;;;;;;;;;5064474;28;20300;-72
2024/02/29 07:10:54;;;;;;;0.20;0.20;;;;;;;;;;5042228;28;20239;-71
2024/02/29 07:13:22;;;;;;;0.20;0.20;;;;;;;;;;5046979;28;20277;-70
2024/02/29 07:15:48;;;;;;;0.20;0.20;;;;;;;;;;5032850;28;20239;-71
2024/02/29 07:18:15;;;;;;;0.20;0.20;;;;;;;;;;5067968;28;20248;-76
2024/02/29 07:20:41;;;;;;;1.23;1.23;;;;;;;;;;5040614;28;20495;-75
2024/02/29 07:23:07;;;;;;;0.20;0.20;;;;;;;;;;5049904;28;20442;-75
2024/02/29 07:25:34;;;;;;;0.67;0.67;;;;;;;;;;5027163;28;20615;-74
2024/02/29 07:28:00;;;;;;;0.20;0.20;;;;;;;;;;5071681;28;20241;-74
2024/02/29 07:30:29;;;;;;;0.40;0.40;;;;;;;;;;5038608;28;20224;-74
2024/02/29 07:32:55;;;;;;;0.60;0.60;;;;;;;;;;5053072;28;20489;-74
2024/02/29 07:35:21;;;;;;;0.20;0.20;;;;;;;;;;5021951;28;20233;-74
2024/02/29 07:37:48;;;;;;;0.20;0.20;;;;;;;;;;5074689;28;20214;-75
2024/02/29 07:40:14;;;;;;;0.20;0.20;;;;;;;;;;5036846;28;20241;-75
2024/02/29 07:42:41;;;;;;;0.20;0.20;;;;;;;;;;5055689;28;20507;-75
2024/02/29 07:45:08;;;;;;;0.70;0.70;;;;;;;;;;5026006;28;20277;-73
2024/02/29 07:47:35;;;;;;;0.10;0.10;;;;;;;;;;5015112;28;20278;-77
2024/02/29 07:50:03;;;;;;;0.13;0.13;;;;;;;;;;5026072;28;20255;-76
2024/02/29 07:52:29;;;;;;;0.77;0.77;;;;;;;;;;5067704;28;20292;-76
2024/02/29 07:54:56;;;;;;;0.20;0.20;;;;;;;;;;5045871;28;20194;-76
2024/02/29 07:57:22;;;;;;;0.40;0.40;;;;;;;;;;5049469;28;20308;-76
2024/02/29 07:59:48;;;;;;;0.10;0.10;;;;;;;;;;5026039;28;20203;-75
2024/02/29 08:02:15;;;;;;;0.10;0.10;;;;;;;;;;5065598;28;20476;-75
2024/02/29 08:04:42;;;;;;;0.20;0.20;;;;;;;;;;5045533;28;20207;-76
2024/02/29 08:07:10;;;;;;;0.20;0.20;;;;;;;;;;5050923;28;20321;-75
2024/02/29 08:09:37;;;;;;;0.30;0.30;;;;;;;;;;5025413;28;20461;-75
2024/02/29 08:12:04;;;;;;;0.30;0.30;;;;;;;;;;5062095;28;20498;-75
2024/02/29 08:14:31;;;;;;;0.40;0.40;;;;;;;;;;5046199;28;20278;-75
2024/02/29 08:16:58;;;;;;;0.10;0.10;;;;;;;;;;5049099;28;20305;-74
2024/02/29 08:19:24;;;;;;;0.10;0.10;;;;;;;;;;5028493;28;20204;-75
2024/02/29 08:21:52;;;;;;;0.10;0.10;;;;;;;;;;5056912;28;20305;-74
2024/02/29 08:24:19;;;;;;;0.10;0.10;;;;;;;;;;5049511;28;20204;-75
2024/02/29 08:26:45;;;;;;;0.10;0.10;;;;;;;;;;5047459;28;20286;-74
2024/02/29 08:29:13;;;;;;;0.20;0.20;;;;;;;;;;5031569;28;20371;-74
2024/02/29 08:31:40;;;;;;;0.10;0.10;;;;;;;;;;5051776;28;20246;-74
2024/02/29 08:34:06;;;;;;;0.17;0.17;;;;;;;;;;5052667;28;20204;-75
2024/02/29 08:36:33;;;;;;;0.10;0.10;;;;;;;;;;5045556;28;20266;-74
2024/02/29 08:39:00;;;;;;;0.10;0.10;;;;;;;;;;5034619;28;20277;-74
2024/02/29 08:41:27;;;;;;;0.10;0.10;;;;;;;;;;5046793;28;20247;-74
2024/02/29 08:43:53;;;;;;;0.20;0.20;;;;;;;;;;5055889;28;20246;-74
2024/02/29 08:46:20;;;;;;;0.10;0.10;;;;;;;;;;5043787;28;20246;-75
2024/02/29 08:48:46;;;;;;;0.10;0.10;;;;;;;;;;5037956;28;20629;-75
2024/02/29 08:51:13;;;;;;;0.10;0.10;;;;;;;;;;5040810;28;20238;-75
2024/02/29 08:53:39;;;;;;;0.10;0.10;;;;;;;;;;5059372;28;20244;-74
2024/02/29 08:56:07;;;;;;;0.40;0.40;;;;;;;;;;5041682;28;20305;-74
2024/02/29 08:58:33;;;;;;;0.10;0.10;;;;;;;;;;5041562;28;20278;-74
2024/02/29 09:01:00;;;;;;;0.00;0.00;;;;;;;;;;5035186;28;20255;-75
2024/02/29 09:03:27;;;;;;;0.10;0.10;;;;;;;;;;5062591;28;20208;-75
2024/02/29 09:05:53;;;;;;;0.17;0.17;;;;;;;;;;5040191;28;20239;-75
2024/02/29 09:08:20;;;;;;;0.05;0.05;;;;;;;;;;5044119;28;20418;-75
2024/02/29 09:10:53;;;;;;;0.17;0.17;;;;;;;;;;5030412;28;20258;-74
2024/02/29 09:13:21;;;;;;;0.00;0.00;;;;;;;;;;5063999;28;20204;-75
2024/02/29 09:15:48;;;;;;;0.00;0.00;;;;;;;;;;5039276;28;20312;-74
2024/02/29 09:18:14;;;;;;;0.90;0.63;;;;;;;;;;5045899;28;20396;-75
2024/02/29 09:20:41;;;;;;;0.10;0.10;;;;;;;;;;5027471;28;20246;-74
2024/02/29 09:23:07;;;;;;;0.00;0.00;;;;;;;;;;5067545;28;20208;-72
2024/02/29 09:25:34;;;;;;;0.00;0.00;;;;;;;;;;5036602;28;20310;-75
2024/02/29 09:28:01;;;;;;;0.00;0.00;;;;;;;;;;5049862;28;20205;-75
2024/02/29 09:30:29;;;;;;;0.00;0.00;;;;;;;;;;5021680;28;20225;-75
2024/02/29 09:32:55;;;;;;;0.00;0.00;;;;;;;;;;5070874;28;20240;-74
2024/02/29 09:35:22;;;;;;;3.60;3.30;;;;;;;;;;5035429;28;20205;-74
2024/02/29 09:37:48;;;;;;;0.10;0.10;;;;;;;;;;5052749;28;20209;-75
2024/02/29 09:40:15;;;;;;;0.32;0.32;;;;;;;;;;5015467;28;20201;-75
2024/02/29 09:42:44;;;;;;;1.80;1.70;;;;;;;;;;5074988;28;20275;-73
2024/02/29 09:45:12;;;;;;;0.00;0.00;;;;;;;;;;5033984;28;20230;-73
2024/02/29 09:47:40;;;;;;;0.00;0.00;;;;;;;;;;5054866;28;20430;-73
2024/02/29 09:50:08;;;;;;;0.30;0.30;;;;;;;;;;5023620;28;20418;-72
2024/02/29 09:52:36;;;;;;;2.60;2.50;;;;;;;;;;5012801;28;20436;-75
2024/02/29 09:55:04;;;;;;;0.00;0.00;;;;;;;;;;5023837;28;20220;-73
2024/02/29 09:57:33;;;;;;;0.47;0.47;;;;;;;;;;5065449;28;20250;-74
2024/02/29 10:00:00;;;;;;;0.10;0.10;;;;;;;;;;5043526;28;20209;-73
2024/02/29 10:02:27;;;;;;;1.40;0.90;;;;;;;;;;5046610;28;20239;-75
2024/02/29 10:04:55;;;;;;;0.10;0.10;;;;;;;;;;5023437;28;20209;-73
2024/02/29 10:07:21;;;;;;;0.47;0.45;;;;;;;;;;5063946;28;20417;-73
2024/02/29 10:09:47;;;;;;;0.38;0.38;;;;;;;;;;5043131;28;20277;-74
2024/02/29 10:12:18;;;;;;;0.00;0.00;;;;;;;;;;5048209;28;20249;-73
2024/02/29 10:14:45;;;;;;;0.20;0.20;;;;;;;;;;5023496;28;20272;-74
2024/02/29 10:17:11;;;;;;;0.00;0.00;;;;;;;;;;5062675;28;20239;-74
2024/02/29 10:19:38;;;;;;;0.10;0.10;;;;;;;;;;5043520;28;20213;-74
2024/02/29 10:22:06;;;;;;;1.08;1.08;;;;;;;;;;5048133;28;20251;-74
2024/02/29 10:24:33;;;;;;;0.28;0.28;;;;;;;;;;5024299;28;20207;-74
2024/02/29 10:27:02;;;;;;;0.10;0.10;;;;;;;;;;5057867;28;20244;-74
2024/02/29 10:29:29;;;;;;;0.10;0.10;;;;;;;;;;5045082;28;20205;-75
2024/02/29 10:31:57;;;;;;;0.40;0.40;;;;;;;;;;5049960;28;20250;-74
2024/02/29 10:34:23;;;;;;;1.00;0.40;;;;;;;;;;5027355;28;20201;-74
2024/02/29 10:36:50;;;;;;;0.55;0.55;;;;;;;;;;5054126;28;20261;-74
2024/02/29 10:39:17;;;;;;;0.10;0.10;;;;;;;;;;5048267;28;20208;-74
2024/02/29 10:41:48;;;;;;;0.10;0.10;;;;;;;;;;5045143;28;20307;-74
2024/02/29 10:44:16;;;;;;;0.60;0.60;;;;;;;;;;5028786;28;20195;-74
2024/02/29 10:46:43;;;;;;;1.17;1.00;;;;;;;;;;5051149;28;20246;-74
2024/02/29 10:49:10;;;;;;;1.83;1.75;;;;;;;;;;5049620;28;20208;-75
2024/02/29 10:51:40;;;;;;;0.10;0.10;;;;;;;;;;5044023;28;20243;-73
2024/02/29 10:54:09;;;;;;;0.10;0.10;;;;;;;;;;5030752;28;20392;-74
2024/02/29 10:56:37;;;;;;;0.43;0.43;;;;;;;;;;5048004;28;20265;-74
2024/02/29 10:59:05;;;;;;;0.10;0.10;;;;;;;;;;5051776;28;20275;-73
2024/02/29 11:01:31;;;;;;;0.00;0.00;;;;;;;;;;5043243;28;20236;-73
2024/02/29 11:03:58;;;;;;;0.03;0.03;;;;;;;;;;5033193;28;20240;-74
2024/02/29 11:06:25;;;;;;;0.43;0.43;;;;;;;;;;5043559;28;20263;-74
2024/02/29 11:08:51;;;;;;;0.00;0.00;;;;;;;;;;5054138;28;20246;-73
2024/02/29 11:11:20;;;;;;;0.10;0.10;;;;;;;;;;5041329;28;20257;-73
2024/02/29 11:13:48;;;;;;;3.33;3.17;;;;;;;;;;5035474;28;20223;-73
2024/02/29 11:16:16;;;;;;;0.10;0.10;;;;;;;;;;5039950;28;20314;-73
2024/02/29 11:18:43;;;;;;;0.00;0.00;;;;;;;;;;5059353;28;20394;-73
2024/02/29 11:21:09;;;;;;;0.00;0.00;;;;;;;;;;5043864;28;20294;-74
2024/02/29 11:23:36;;;;;;;0.00;0.00;;;;;;;;;;5042526;28;20237;-74
2024/02/29 11:26:02;;;;;;;0.00;0.00;;;;;;;;;;5038238;28;20508;-74
2024/02/29 11:28:33;;;;;;;0.10;0.10;;;;;;;;;;5064106;28;20433;-74
2024/02/29 11:31:11;;;;;;;0.10;0.10;;;;;;;;;;5042585;28;20286;-74
2024/02/29 11:33:37;;;;;;;0.00;0.00;;;;;;;;;;5041498;28;20205;-74
2024/02/29 11:36:05;;;;;;;0.00;0.00;;;;;;;;;;5037772;28;20298;-74
2024/02/29 11:38:33;;;;;;;0.00;0.00;;;;;;;;;;5063924;28;20209;-74
2024/02/29 11:41:00;;;;;;;0.00;0.00;;;;;;;;;;5042272;28;20266;-74
2024/02/29 11:43:26;;;;;;;0.20;0.20;;;;;;;;;;5044369;28;20244;-74
2024/02/29 11:45:53;;;;;;;0.17;0.17;;;;;;;;;;5033915;28;20324;-74
2024/02/29 11:48:20;;;;;;;0.47;0.47;;;;;;;;;;5066467;28;20212;-74
2024/02/29 11:50:47;;;;;;;0.00;0.00;;;;;;;;;;5040651;28;20461;-74
2024/02/29 11:53:13;;;;;;;0.00;0.00;;;;;;;;;;5048269;28;20277;-74
2024/02/29 11:55:40;;;;;;;1.30;1.17;;;;;;;;;;5028576;28;20247;-74
2024/02/29 11:58:06;;;;;;;0.00;0.00;;;;;;;;;;5069925;28;20277;-74
2024/02/29 12:00:32;;;;;;;0.15;0.15;;;;;;;;;;5038145;28;20241;-74
2024/02/29 12:02:59;;;;;;;0.00;0.00;;;;;;;;;;5052507;28;20205;-74
2024/02/29 12:05:27;;;;;;;0.00;0.00;;;;;;;;;;5022428;28;20205;-74
2024/02/29 12:07:53;;;;;;;0.00;0.00;;;;;;;;;;5072754;28;20292;-74
2024/02/29 12:10:21;;;;;;;4.88;4.68;;;;;;;;;;5036422;28;20231;-74
2024/02/29 12:12:47;;;;;;;0.00;0.00;;;;;;;;;;5054640;28;20373;-74
2024/02/29 12:15:14;;;;;;;0.00;0.00;;;;;;;;;;5017649;28;20235;-73
2024/02/29 12:17:40;;;;;;;0.00;0.00;;;;;;;;;;5076488;28;20395;-74
2024/02/29 12:20:08;;;;;;;2.58;2.38;;;;;;;;;;5045436;28;20448;-74
2024/02/29 12:22:36;;;;;;;1.50;0.88;;;;;;;;;;5034169;28;20247;-74
2024/02/29 12:25:11;;;;;;;0.00;0.00;;;;;;;;;;5045462;28;20447;-73
2024/02/29 12:27:37;;;;;;;0.00;0.00;;;;;;;;;;5034322;28;20208;-74
2024/02/29 12:30:05;;;;;;;0.00;0.00;;;;;;;;;;5044777;28;20272;-73
2024/02/29 12:32:31;;;;;;;0.98;0.43;;;;;;;;;;5047655;28;20241;-74
2024/02/29 12:34:58;;;;;;;0.75;0.57;;;;;;;;;;5025424;28;20230;-74
2024/02/29 12:37:24;;;;;;;1.55;0.63;;;;;;;;;;5065884;28;20239;-74
2024/02/29 12:39:56;;;;;;;0.00;0.00;;;;;;;;;;5045207;28;20204;-74
2024/02/29 12:42:23;;;;;;;0.35;0.35;;;;;;;;;;5048572;28;20307;-74
2024/02/29 12:44:49;;;;;;;0.00;0.00;;;;;;;;;;5025216;28;20240;-74
2024/02/29 12:47:16;;;;;;;0.45;0.30;;;;;;;;;;5064780;28;20239;-74
2024/02/29 12:49:42;;;;;;;0.00;0.00;;;;;;;;;;5045151;28;20216;-74
2024/02/29 12:52:09;;;;;;;0.10;0.10;;;;;;;;;;5049851;28;20239;-74
2024/02/29 12:54:36;;;;;;;0.00;0.00;;;;;;;;;;5024955;28;20205;-74
2024/02/29 12:57:06;;;;;;;1.35;1.00;;;;;;;;;;5060835;28;20243;-74
2024/02/29 12:59:32;;;;;;;0.20;0.20;;;;;;;;;;5045520;28;20203;-74
2024/02/29 13:01:59;;;;;;;0.00;0.00;;;;;;;;;;5047949;28;20295;-74
2024/02/29 13:04:26;;;;;;;0.10;0.10;;;;;;;;;;5027368;28;20211;-74
2024/02/29 13:06:52;;;;;;;0.00;0.00;;;;;;;;;;5056105;28;20380;-74
2024/02/29 13:09:19;;;;;;;0.00;0.00;;;;;;;;;;5048639;28;20241;-74
2024/02/29 13:11:46;;;;;;;0.00;0.00;;;;;;;;;;5046384;28;20243;-74
2024/02/29 13:14:13;;;;;;;0.00;0.00;;;;;;;;;;5030796;28;20205;-74
2024/02/29 13:16:40;;;;;;;0.00;0.00;;;;;;;;;;5051267;28;20239;-74
2024/02/29 13:19:07;;;;;;;0.10;0.10;;;;;;;;;;5052039;28;20232;-74
2024/02/29 13:21:33;;;;;;;0.00;0.00;;;;;;;;;;5044740;28;20310;-74
2024/02/29 13:23:59;;;;;;;0.00;0.00;;;;;;;;;;5034300;28;20444;-74
2024/02/29 13:26:26;;;;;;;0.47;0.47;;;;;;;;;;5045516;28;20306;-73
2024/02/29 13:28:52;;;;;;;0.40;0.40;;;;;;;;;;5055152;28;20205;-74
2024/02/29 13:31:20;;;;;;;0.00;0.00;;;;;;;;;;5042708;28;20231;-74
2024/02/29 13:33:46;;;;;;;0.00;0.00;;;;;;;;;;5037136;28;20243;-74
2024/02/29 13:36:13;;;;;;;0.00;0.00;;;;;;;;;;5040084;28;20251;-74
2024/02/29 13:38:39;;;;;;;0.10;0.10;;;;;;;;;;5058898;28;20425;-74
2024/02/29 13:41:06;;;;;;;0.00;0.00;;;;;;;;;;5040403;28;20236;-74
2024/02/29 13:43:32;;;;;;;0.00;0.00;;;;;;;;;;5040640;28;20517;-74
2024/02/29 13:45:59;;;;;;;0.00;0.00;;;;;;;;;;5034228;28;20519;-74
2024/02/29 13:48:26;;;;;;;0.22;0.22;;;;;;;;;;5062449;28;20237;-74
2024/02/29 13:50:53;;;;;;;0.00;0.00;;;;;;;;;;5038970;28;20244;-74
2024/02/29 13:53:19;;;;;;;0.08;0.08;;;;;;;;;;5043849;28;20264;-74
2024/02/29 13:55:45;;;;;;;0.00;0.00;;;;;;;;;;5028486;28;20243;-74
2024/02/29 13:58:12;;;;;;;0.00;0.00;;;;;;;;;;5066016;28;20272;-74
2024/02/29 14:00:38;;;;;;;0.10;0.10;;;;;;;;;;5037131;28;20244;-74
2024/02/29 14:03:06;;;;;;;0.10;0.10;;;;;;;;;;5047655;28;20209;-74
2024/02/29 14:05:34;;;;;;;0.00;0.00;;;;;;;;;;5023649;28;20245;-74
2024/02/29 14:08:00;;;;;;;0.08;0.08;;;;;;;;;;5068669;28;20216;-74
2024/02/29 14:10:28;;;;;;;0.10;0.10;;;;;;;;;;5035738;28;20294;-74
2024/02/29 14:12:54;;;;;;;0.65;0.63;;;;;;;;;;5050280;28;20527;-74
2024/02/29 14:15:21;;;;;;;0.10;0.10;;;;;;;;;;5018634;28;20236;-73
2024/02/29 14:17:48;;;;;;;0.10;0.10;;;;;;;;;;5072370;28;20395;-73
2024/02/29 14:20:16;;;;;;;0.10;0.10;;;;;;;;;;5034056;28;20249;-73
2024/02/29 14:22:44;;;;;;;0.10;0.10;;;;;;;;;;5053416;28;20204;-74
2024/02/29 14:25:10;;;;;;;0.10;0.10;;;;;;;;;;5014669;28;20208;-73
2024/02/29 14:27:37;;;;;;;0.20;0.20;;;;;;;;;;5074771;28;20229;-74
2024/02/29 14:30:08;;;;;;;0.00;0.00;;;;;;;;;;5043065;28;20208;-73
2024/02/29 14:32:34;;;;;;;0.10;0.10;;;;;;;;;;5032078;28;20238;-73
2024/02/29 14:35:00;;;;;;;0.10;0.10;;;;;;;;;;5043142;28;20241;-73
2024/02/29 14:37:27;;;;;;;0.10;0.10;;;;;;;;;;5046293;28;20245;-73
2024/02/29 14:39:56;;;;;;;0.05;0.05;;;;;;;;;;5023240;28;20232;-74